Time;durP1;ratioP1;P1;durP2;ratioP2;P2;SDS_P1;SDS_P2;PMS_P1;PMS_P2;Temp;Humidity;BMP_temperature;BMP_pressure;BME280_temperature;BME280_humidity;BME280_pressure;Samples;Min_cycle;Max_cycle;Signal;HPM_P1;HPM_P2
2024/01/14 00:02:27;;;;;;;16.67;6.43;;;3.20;99.90;;;2.85;100.00;101081.09;5234467;28;20048;-48
2024/01/14 00:04:59;;;;;;;14.88;6.00;;;3.20;99.90;;;2.82;100.00;101080.88;5236167;28;20052;-48
2024/01/14 00:07:33;;;;;;;16.73;5.45;;;3.20;99.90;;;2.82;100.00;101078.31;5243863;28;20423;-47
2024/01/14 00:10:07;;;;;;;15.48;5.22;;;3.20;99.90;;;2.83;100.00;101072.38;5236675;28;20054;-48
2024/01/14 00:12:39;;;;;;;11.63;4.65;;;3.10;99.90;;;2.80;100.00;101068.69;5242908;28;20047;-47
2024/01/14 00:15:12;;;;;;;14.65;5.40;;;3.10;99.90;;;2.81;100.00;101066.22;5253659;28;20052;-46
2024/01/14 00:17:45;;;;;;;17.88;5.10;;;3.10;99.90;;;2.83;100.00;101071.47;5242717;28;20152;-48
2024/01/14 00:20:18;;;;;;;12.68;5.53;;;3.10;99.90;;;2.81;100.00;101067.91;5239788;28;20047;-46
2024/01/14 00:22:51;;;;;;;13.95;5.20;;;3.10;99.90;;;2.82;100.00;101065.44;5239949;28;20139;-47
2024/01/14 00:25:24;;;;;;;15.55;4.95;;;3.10;99.90;;;2.85;100.00;101069.91;5245851;28;20591;-47
2024/01/14 00:27:56;;;;;;;15.32;5.68;;;3.10;99.90;;;2.87;100.00;101069.25;5242762;28;20069;-48
2024/01/14 00:30:29;;;;;;;20.45;6.07;;;3.20;99.90;;;2.87;100.00;101060.59;5247219;28;20048;-47
2024/01/14 00:33:01;;;;;;;13.35;5.65;;;3.20;99.90;;;2.87;100.00;101056.38;5246242;28;20045;-47
2024/01/14 00:35:33;;;;;;;13.13;3.90;;;3.20;99.90;;;2.87;100.00;101055.44;5246382;28;20052;-47
2024/01/14 00:38:07;;;;;;;11.93;5.03;;;3.20;99.90;;;2.87;100.00;101048.63;5241430;28;20060;-47
2024/01/14 00:40:40;;;;;;;15.43;4.70;;;3.20;99.90;;;2.89;100.00;101052.19;5242831;28;20075;-47
2024/01/14 00:43:12;;;;;;;15.90;4.63;;;3.20;99.90;;;2.86;100.00;101045.94;5242430;28;20071;-48
2024/01/14 00:45:44;;;;;;;15.70;5.00;;;3.20;99.90;;;2.82;100.00;101039.69;5243888;28;20738;-48
2024/01/14 00:48:17;;;;;;;10.45;5.50;;;3.20;99.90;;;2.82;100.00;101029.41;5242369;28;20084;-48
2024/01/14 00:50:49;;;;;;;12.35;4.22;;;3.20;99.90;;;2.84;100.00;101032.97;5241865;28;20056;-48
2024/01/14 00:53:23;;;;;;;16.92;5.15;;;3.10;99.90;;;2.84;100.00;101026.91;5246774;28;20053;-48
2024/01/14 00:55:55;;;;;;;12.98;6.13;;;3.20;99.90;;;2.83;100.00;101031.19;5235578;28;20079;-48
2024/01/14 00:58:27;;;;;;;14.10;5.53;;;3.20;99.90;;;2.82;100.00;101026.81;5248283;28;20063;-48
2024/01/14 01:01:00;;;;;;;10.63;4.22;;;3.10;99.90;;;2.84;100.00;101029.50;5234509;28;20032;-48
2024/01/14 01:03:32;;;;;;;15.57;5.55;;;3.10;99.90;;;2.85;100.00;101031.28;5237771;28;20527;-48
2024/01/14 01:06:05;;;;;;;10.88;3.75;;;3.20;99.90;;;2.83;100.00;101020.88;5243476;28;20442;-48
2024/01/14 01:08:39;;;;;;;11.15;3.85;;;3.20;99.90;;;2.83;100.00;101015.72;5244922;28;20608;-48
2024/01/14 01:11:11;;;;;;;14.95;6.28;;;3.10;99.90;;;2.82;100.00;101016.53;5238504;28;20049;-48
2024/01/14 01:13:44;;;;;;;13.00;5.60;;;3.20;99.90;;;2.77;100.00;101005.00;5238864;28;20049;-48
2024/01/14 01:16:16;;;;;;;11.20;5.05;;;3.20;99.90;;;2.73;100.00;101005.56;5237476;28;20056;-49
2024/01/14 01:18:49;;;;;;;13.15;4.35;;;3.10;99.90;;;2.73;100.00;100993.59;5238226;28;20055;-48
2024/01/14 01:21:22;;;;;;;16.05;4.57;;;3.10;99.90;;;2.77;100.00;100999.84;5245277;28;20142;-48
2024/01/14 01:23:56;;;;;;;19.50;5.13;;;3.10;99.90;;;2.78;100.00;100988.75;5241977;28;20556;-48
2024/01/14 01:26:29;;;;;;;15.25;6.55;;;3.10;99.90;;;2.78;100.00;100986.19;5244913;28;20143;-48
2024/01/14 01:29:02;;;;;;;13.82;4.32;;;3.10;99.90;;;2.76;100.00;100977.47;5235974;28;20056;-47
2024/01/14 01:31:34;;;;;;;14.13;4.22;;;3.10;99.90;;;2.76;100.00;100974.00;5240424;28;20464;-48
2024/01/14 01:34:06;;;;;;;15.23;5.97;;;3.10;99.90;;;2.76;100.00;100986.88;5250804;28;20049;-47
2024/01/14 01:36:39;;;;;;;10.93;4.95;;;3.10;99.90;;;2.70;100.00;100979.63;5251844;28;20580;-49
2024/01/14 01:39:14;;;;;;;13.63;5.10;;;3.10;99.90;;;2.71;100.00;100976.25;5241924;28;20037;-49
2024/01/14 01:41:46;;;;;;;12.18;5.53;;;3.10;99.90;;;2.73;100.00;100964.38;5244564;28;20075;-48
2024/01/14 01:44:19;;;;;;;10.82;4.10;;;3.10;99.90;;;2.70;100.00;100967.66;5255029;28;20051;-48
2024/01/14 01:46:51;;;;;;;15.82;5.85;;;3.10;99.90;;;2.67;100.00;100976.81;5244296;28;20044;-48
2024/01/14 01:49:24;;;;;;;10.88;4.43;;;3.10;99.90;;;2.68;100.00;100969.22;5251295;28;20051;-48
2024/01/14 01:52:00;;;;;;;12.98;4.85;;;3.10;99.90;;;2.67;100.00;100967.47;5246070;28;20084;-48
2024/01/14 01:54:39;;;;;;;10.75;4.20;;;3.10;99.90;;;2.73;100.00;100956.66;5239144;28;20051;-48
2024/01/14 01:57:13;;;;;;;12.45;4.47;;;3.00;99.90;;;2.79;100.00;100956.19;5244000;28;20061;-48
2024/01/14 01:59:47;;;;;;;9.00;4.18;;;3.10;99.90;;;2.81;100.00;100950.38;5240007;28;20037;-47
2024/01/14 02:02:22;;;;;;;17.00;4.18;;;3.10;99.90;;;2.84;100.00;100944.53;5244906;28;20079;-48
2024/01/14 02:04:55;;;;;;;14.00;4.47;;;3.10;99.90;;;2.86;100.00;100938.69;5252430;28;20526;-48
2024/01/14 02:07:27;;;;;;;16.90;4.00;;;3.20;99.90;;;2.86;100.00;100938.69;5240814;28;20507;-48
2024/01/14 02:10:01;;;;;;;14.15;4.03;;;3.20;99.90;;;2.87;100.00;100935.34;5243278;28;20124;-49
2024/01/14 02:12:37;;;;;;;14.90;5.30;;;3.20;99.90;;;2.89;100.00;100928.59;5245411;28;20419;-48
2024/01/14 02:15:10;;;;;;;13.73;4.55;;;3.20;99.90;;;2.90;100.00;100917.50;5246021;28;20045;-48
2024/01/14 02:17:42;;;;;;;11.73;4.30;;;3.20;99.90;;;2.91;100.00;100905.53;5242051;28;20200;-47
2024/01/14 02:20:17;;;;;;;12.43;4.70;;;3.20;99.90;;;2.90;100.00;100899.50;5241314;28;20047;-48
2024/01/14 02:22:53;;;;;;;10.77;4.00;;;3.20;99.90;;;2.91;100.00;100918.41;5245643;28;20044;-48
2024/01/14 02:25:27;;;;;;;;;;;3.20;99.90;;;2.89;100.00;100928.59;5255342;28;20048;-48
2024/01/14 02:27:59;;;;;;;9.73;3.92;;;3.20;99.90;;;2.86;100.00;100935.22;5231751;28;19928;-48
2024/01/14 02:30:32;;;;;;;9.75;2.95;;;3.20;99.90;;;2.86;100.00;100927.50;5250648;28;20044;-49
2024/01/14 02:33:06;;;;;;;10.50;3.22;;;3.20;99.90;;;2.88;100.00;100918.22;5250048;28;20075;-47
2024/01/14 02:35:39;;;;;;;8.63;2.63;;;3.20;99.90;;;2.87;100.00;100919.91;5244708;28;20136;-47
2024/01/14 02:38:12;;;;;;;8.20;4.45;;;3.20;99.90;;;2.87;100.00;100918.97;5248402;28;20048;-48
2024/01/14 02:40:45;;;;;;;12.32;3.83;;;3.20;99.90;;;2.86;100.00;100904.31;5235999;28;20584;-49
2024/01/14 02:43:18;;;;;;;9.35;4.10;;;3.20;99.90;;;2.82;100.00;100908.38;5254351;28;20040;-49
2024/01/14 02:45:50;;;;;;;11.27;4.90;;;3.20;99.90;;;2.83;100.00;100905.03;5238428;28;20075;-49
2024/01/14 02:48:22;;;;;;;9.18;3.60;;;3.20;99.90;;;2.86;100.00;100897.47;5248771;28;20504;-48
2024/01/14 02:50:55;;;;;;;10.07;4.18;;;3.20;99.90;;;2.90;100.00;100899.50;5231148;28;20521;-48
2024/01/14 02:53:27;;;;;;;15.25;3.53;;;3.20;99.90;;;2.90;100.00;100899.50;5253338;28;20033;-48
2024/01/14 02:56:01;;;;;;;7.50;3.78;;;3.20;99.90;;;2.90;100.00;100903.75;5241278;28;20127;-48
2024/01/14 02:58:33;;;;;;;9.10;3.60;;;3.20;99.90;;;2.88;100.00;100893.34;5246002;28;20049;-47
2024/01/14 03:01:06;;;;;;;10.77;3.13;;;3.20;99.90;;;2.88;100.00;100890.78;5242272;28;20041;-49
2024/01/14 03:03:39;;;;;;;8.55;4.10;;;3.20;99.90;;;2.88;100.00;100883.06;5247938;28;20094;-47
2024/01/14 03:06:11;;;;;;;11.75;3.30;;;3.20;99.90;;;2.89;100.00;100879.69;5247857;28;20399;-48
2024/01/14 03:08:44;;;;;;;13.60;3.88;;;3.20;99.90;;;2.92;100.00;100877.28;5245809;28;20486;-48
2024/01/14 03:11:18;;;;;;;12.10;3.10;;;3.20;99.90;;;2.94;100.00;100852.56;5243565;28;20397;-48
2024/01/14 03:13:50;;;;;;;9.93;4.70;;;3.20;99.90;;;2.95;100.00;100862.06;5236656;28;20044;-48
2024/01/14 03:16:22;;;;;;;5.43;2.40;;;3.20;99.90;;;2.97;100.00;100852.75;5250185;28;20422;-48
2024/01/14 03:18:55;;;;;;;8.32;3.65;;;3.30;99.90;;;2.96;100.00;100863.84;5245958;28;20060;-48
2024/01/14 03:21:27;;;;;;;12.20;3.80;;;3.30;99.90;;;2.97;100.00;100865.63;5250448;28;20539;-48
2024/01/14 03:23:59;;;;;;;10.73;3.72;;;3.30;99.90;;;2.96;100.00;100869.00;5244468;28;20113;-48
2024/01/14 03:26:33;;;;;;;8.55;3.58;;;3.20;99.90;;;2.95;100.00;100877.50;5235264;28;20068;-48
2024/01/14 03:29:05;;;;;;;11.68;4.13;;;3.30;99.90;;;2.98;100.00;100881.97;5245127;28;20040;-48
2024/01/14 03:31:38;;;;;;;6.55;3.83;;;3.30;99.90;;;2.97;100.00;100875.94;5240012;28;20072;-48
2024/01/14 03:34:10;;;;;;;8.10;3.53;;;3.30;99.90;;;2.98;100.00;100875.13;5243172;28;20041;-47
2024/01/14 03:36:43;;;;;;;8.65;3.72;;;3.30;99.90;;;3.01;100.00;100863.28;5239545;28;20419;-48
2024/01/14 03:39:15;;;;;;;7.93;3.60;;;3.30;99.90;;;3.02;100.00;100857.31;5248906;28;20063;-48
2024/01/14 03:41:49;;;;;;;11.18;4.10;;;3.30;99.90;;;3.03;100.00;100853.94;5240126;28;20048;-48
2024/01/14 03:44:21;;;;;;;5.22;2.22;;;3.30;99.90;;;3.05;100.00;100847.19;5247435;28;20110;-49
2024/01/14 03:46:53;;;;;;;8.88;3.65;;;3.30;99.90;;;3.05;100.00;100849.78;5248485;28;20056;-48
2024/01/14 03:49:26;;;;;;;7.00;3.63;;;3.30;99.90;;;3.05;100.00;100839.47;5240619;28;20041;-47
2024/01/14 03:51:58;;;;;;;7.65;3.08;;;3.30;99.90;;;3.07;100.00;100837.91;5241835;28;20550;-48
2024/01/14 03:54:31;;;;;;;7.45;3.22;;;3.30;99.90;;;3.07;100.00;100845.66;5241843;28;20037;-47
2024/01/14 03:57:04;;;;;;;8.05;3.85;;;3.30;99.90;;;3.05;100.00;100836.91;5243891;28;20066;-47
2024/01/14 03:59:38;;;;;;;6.63;3.67;;;3.30;99.90;;;3.03;100.00;100838.50;5238091;28;20064;-47
2024/01/14 04:02:11;;;;;;;6.35;3.28;;;3.30;99.90;;;3.06;100.00;100843.81;5232826;28;20044;-47
2024/01/14 04:04:43;;;;;;;9.13;3.53;;;3.40;99.90;;;3.05;100.00;100842.06;5243920;28;20514;-48
2024/01/14 04:07:15;;;;;;;5.97;2.58;;;3.30;99.90;;;3.04;100.00;100840.28;5238086;28;20135;-49
2024/01/14 04:09:48;;;;;;;8.50;3.50;;;3.30;99.90;;;3.01;100.00;100835.81;5249136;28;20090;-47
2024/01/14 04:12:22;;;;;;;8.85;3.22;;;3.30;99.90;;;2.97;100.00;100829.56;5246466;28;20507;-48
2024/01/14 04:14:54;;;;;;;11.07;4.00;;;3.30;99.90;;;2.95;100.00;100826.00;5246180;28;20049;-48
2024/01/14 04:17:26;;;;;;;7.82;2.95;;;3.30;99.90;;;2.96;100.00;100827.78;5239759;28;20056;-49
2024/01/14 04:19:59;;;;;;;9.75;3.13;;;3.30;99.90;;;2.98;100.00;100826.19;5239254;28;20056;-48
2024/01/14 04:22:31;;;;;;;7.18;3.45;;;3.30;99.90;;;2.99;100.00;100821.94;5231411;28;20126;-48
2024/01/14 04:25:04;;;;;;;5.35;2.85;;;3.30;99.90;;;2.98;100.00;100820.16;5251829;28;20049;-48
2024/01/14 04:27:39;;;;;;;6.53;2.63;;;3.30;99.90;;;2.99;100.00;100821.94;5243574;28;20059;-47
2024/01/14 04:30:12;;;;;;;8.43;3.38;;;3.30;99.90;;;2.99;100.00;100820.25;5243132;28;20495;-48
2024/01/14 04:32:48;;;;;;;6.35;2.13;;;3.30;99.90;;;3.03;100.00;100818.78;5233097;28;20051;-48
2024/01/14 04:35:20;;;;;;;;;;;3.30;99.90;;;3.04;100.00;100814.53;5233348;28;20424;-47
2024/01/14 04:37:52;;;;;;;3.85;1.75;;;3.30;99.90;;;3.03;100.00;100820.47;5222174;28;20402;-48
2024/01/14 04:40:24;;;;;;;4.40;2.00;;;3.30;99.90;;;2.99;100.00;100820.25;5239895;28;20041;-49
2024/01/14 04:42:58;;;;;;;6.22;3.22;;;3.30;99.90;;;3.02;100.00;100810.97;5240681;28;20053;-48
2024/01/14 04:45:30;;;;;;;10.32;3.95;;;3.30;99.90;;;3.03;100.00;100807.59;5239647;28;20094;-48
2024/01/14 04:48:03;;;;;;;10.05;3.50;;;3.30;99.90;;;3.04;100.00;100814.53;5243685;28;20048;-48
2024/01/14 04:50:39;;;;;;;4.63;1.05;;;3.30;99.90;;;3.02;100.00;100816.13;5243542;28;20344;-49
2024/01/14 04:53:11;;;;;;;6.13;2.63;;;3.30;99.90;;;3.03;100.00;100807.59;5230765;28;20503;-48
2024/01/14 04:55:44;;;;;;;5.75;2.67;;;3.30;99.90;;;3.04;100.00;100799.06;5229610;28;20052;-47
2024/01/14 04:58:18;;;;;;;5.93;2.38;;;3.30;99.90;;;3.05;100.00;100795.69;5241209;28;20407;-48
2024/01/14 05:00:54;;;;;;;6.90;2.47;;;3.30;99.90;;;3.07;100.00;100799.28;5236992;28;20415;-48
2024/01/14 05:03:26;;;;;;;8.07;3.08;;;3.30;99.90;;;3.06;100.00;100789.75;5240873;28;20063;-48
2024/01/14 05:05:58;;;;;;;5.65;2.70;;;3.30;99.90;;;3.09;100.00;100792.53;5240945;28;20098;-48
2024/01/14 05:08:31;;;;;;;7.57;2.45;;;3.40;99.90;;;3.06;100.00;100794.91;5241492;28;20567;-50
2024/01/14 05:11:03;;;;;;;7.53;3.63;;;3.30;99.90;;;3.04;100.00;100794.81;5242821;28;20091;-48
2024/01/14 05:13:37;;;;;;;5.00;2.15;;;3.30;99.90;;;3.03;100.00;100787.00;5250733;28;20044;-48
2024/01/14 05:16:10;;;;;;;3.90;1.63;;;3.30;99.90;;;2.95;100.00;100779.66;5246272;28;20557;-48
2024/01/14 05:18:43;;;;;;;4.40;2.10;;;3.30;99.90;;;2.97;100.00;100784.91;5241756;28;20515;-48
2024/01/14 05:21:16;;;;;;;7.63;2.85;;;3.30;99.90;;;3.01;100.00;100778.28;5245994;28;20041;-49
2024/01/14 05:23:49;;;;;;;4.45;2.17;;;3.30;99.90;;;3.01;100.00;100773.13;5243796;28;20458;-47
2024/01/14 05:26:24;;;;;;;5.95;2.83;;;3.30;99.90;;;2.98;100.00;100772.13;5242949;28;20072;-48
2024/01/14 05:28:59;;;;;;;;;;;3.30;99.90;;;2.95;100.00;100774.50;5246726;28;20053;-47
2024/01/14 05:31:31;;;;;;;3.17;1.73;;;3.30;99.90;;;2.90;100.00;100769.84;5243179;28;20299;-47
2024/01/14 05:34:04;;;;;;;8.75;2.75;;;3.30;99.90;;;2.85;100.00;100766.97;5241761;28;20049;-47
2024/01/14 05:36:36;;;;;;;5.78;1.77;;;3.20;99.90;;;2.81;100.00;100765.00;5251079;28;20094;-48
2024/01/14 05:39:09;;;;;;;7.45;3.67;;;3.20;99.90;;;2.85;100.00;100772.13;5233892;28;20596;-47
2024/01/14 05:41:41;;;;;;;6.22;2.33;;;3.20;99.90;;;2.83;100.00;100768.56;5250286;28;20040;-47
2024/01/14 05:44:15;;;;;;;4.63;1.85;;;3.20;99.90;;;2.83;100.00;100767.69;5248905;28;20053;-48
2024/01/14 05:46:47;;;;;;;2.80;1.58;;;3.20;99.90;;;2.81;100.00;100765.00;5249394;28;20450;-48
2024/01/14 05:49:20;;;;;;;8.48;2.63;;;3.20;99.90;;;2.80;100.00;100760.63;5247199;28;20049;-48
2024/01/14 05:51:52;;;;;;;6.57;2.80;;;3.10;99.90;;;2.84;100.00;100760.03;5248863;28;20041;-49
2024/01/14 05:54:25;;;;;;;7.63;3.28;;;3.20;99.90;;;2.87;100.00;100760.25;5246103;28;20059;-49
2024/01/14 05:56:58;;;;;;;5.55;2.22;;;3.20;99.90;;;2.89;100.00;100750.94;5250376;28;20064;-48
2024/01/14 05:59:32;;;;;;;6.80;2.35;;;3.20;99.90;;;2.93;100.00;100759.72;5248376;28;20543;-48
2024/01/14 06:02:04;;;;;;;5.32;2.63;;;3.20;99.90;;;2.90;100.00;100749.25;5244034;28;20041;-48
2024/01/14 06:04:37;;;;;;;4.47;2.80;;;3.20;99.90;;;2.89;100.00;100750.06;5251425;28;20515;-48
2024/01/14 06:07:10;;;;;;;6.05;2.65;;;3.20;99.90;;;2.88;100.00;100750.84;5248856;28;20064;-48
2024/01/14 06:09:43;;;;;;;3.22;2.05;;;3.20;99.90;;;2.85;100.00;100751.53;5245636;28;20036;-49
2024/01/14 06:12:16;;;;;;;4.40;2.58;;;3.20;99.90;;;2.87;100.00;100746.47;5247024;28;20044;-48
2024/01/14 06:14:50;;;;;;;5.40;2.17;;;3.20;99.90;;;2.87;100.00;100733.59;5247120;28;20055;-48
2024/01/14 06:17:22;;;;;;;6.68;2.33;;;3.20;99.90;;;2.89;100.00;100735.50;5246760;28;20052;-50
2024/01/14 06:19:54;;;;;;;5.25;2.35;;;3.20;99.90;;;2.87;100.00;100739.66;5231465;28;20045;-47
2024/01/14 06:22:27;;;;;;;6.22;2.10;;;3.20;99.90;;;2.88;100.00;100731.13;5230139;28;20071;-48
2024/01/14 06:25:02;;;;;;;6.05;2.30;;;3.20;99.90;;;2.92;100.00;100733.09;5233397;28;20049;-47
2024/01/14 06:27:34;;;;;;;6.00;3.10;;;3.30;99.90;;;2.95;100.00;100732.41;5234161;28;20044;-47
2024/01/14 06:30:10;;;;;;;6.15;2.38;;;3.20;99.90;;;2.96;100.00;100737.66;5248417;28;20056;-48
2024/01/14 06:32:43;;;;;;;6.47;2.58;;;3.30;99.90;;;2.98;100.00;100724.88;5249258;28;20414;-48
2024/01/14 06:35:15;;;;;;;4.15;2.50;;;3.30;99.90;;;2.99;100.00;100726.66;5246583;28;20059;-47
2024/01/14 06:37:48;;;;;;;4.80;2.10;;;3.30;99.90;;;2.97;100.00;100726.56;5250196;28;20094;-47
2024/01/14 06:40:20;;;;;;;7.45;2.33;;;3.30;99.90;;;2.98;100.00;100723.19;5247012;28;20041;-48
2024/01/14 06:42:52;;;;;;;6.68;2.78;;;3.30;99.90;;;3.03;100.00;100720.03;5248836;28;20495;-48
2024/01/14 06:45:26;;;;;;;4.03;1.90;;;3.30;99.90;;;3.06;100.00;100730.50;5246277;28;20053;-48
2024/01/14 06:47:58;;;;;;;6.15;2.78;;;3.30;99.90;;;3.06;100.00;100725.34;5249468;28;20048;-48
2024/01/14 06:50:31;;;;;;;6.30;2.65;;;3.30;99.90;;;3.07;100.00;100722.03;5245536;28;20407;-45
2024/01/14 06:53:04;;;;;;;3.88;2.00;;;3.30;99.90;;;3.07;100.00;100722.03;5252173;28;20036;-46
2024/01/14 06:55:36;;;;;;;6.18;2.33;;;3.30;99.90;;;3.06;100.00;100723.66;5252575;28;20059;-45
2024/01/14 06:58:08;;;;;;;3.22;1.90;;;3.30;99.90;;;3.06;100.00;100725.34;5240209;28;20049;-45
2024/01/14 07:00:44;;;;;;;6.57;2.60;;;3.30;99.90;;;3.06;100.00;100720.22;5245229;28;20055;-45
2024/01/14 07:03:17;;;;;;;9.18;2.40;;;3.30;99.90;;;3.07;100.00;100720.34;5250209;28;20037;-45
2024/01/14 07:05:49;;;;;;;8.75;2.63;;;3.40;99.90;;;3.07;100.00;100711.72;5240591;28;20159;-44
2024/01/14 07:08:21;;;;;;;9.50;3.85;;;3.30;99.90;;;3.05;100.00;100713.28;5251053;28;20064;-45
2024/01/14 07:10:54;;;;;;;5.28;2.08;;;3.30;99.90;;;3.06;100.00;100705.66;5253177;28;20098;-44
2024/01/14 07:13:26;;;;;;;6.63;2.67;;;3.30;99.90;;;3.08;100.00;100695.47;5231633;28;20055;-44
2024/01/14 07:16:00;;;;;;;6.20;2.33;;;3.40;99.90;;;3.09;100.00;100704.97;5243577;28;20060;-44
2024/01/14 07:18:32;;;;;;;7.18;2.20;;;3.40;99.90;;;3.09;100.00;100698.13;5251083;28;20507;-44
2024/01/14 07:21:06;;;;;;;5.95;1.98;;;3.40;99.90;;;3.11;100.00;100699.09;5239603;28;20128;-46
2024/01/14 07:23:38;;;;;;;5.60;2.78;;;3.40;99.90;;;3.12;100.00;100705.16;5242456;28;20450;-45
2024/01/14 07:26:15;;;;;;;5.05;2.58;;;3.40;99.90;;;3.10;100.00;100691.28;5248365;28;20411;-44
2024/01/14 07:28:47;;;;;;;7.82;2.97;;;3.40;99.90;;;3.10;100.00;100691.28;5232155;28;20071;-44
2024/01/14 07:31:22;;;;;;;7.57;2.22;;;3.40;99.90;;;3.05;100.00;100690.09;5248338;28;20150;-44
2024/01/14 07:33:54;;;;;;;9.35;2.60;;;3.30;99.90;;;3.01;100.00;100698.44;5249896;28;20569;-44
2024/01/14 07:36:26;;;;;;;6.10;2.15;;;3.30;99.90;;;2.97;100.00;100693.09;5240553;28;20419;-44
2024/01/14 07:38:59;;;;;;;8.70;2.88;;;3.30;99.90;;;2.99;100.00;100698.31;5232179;28;20107;-45
2024/01/14 07:41:32;;;;;;;7.57;2.92;;;3.30;99.90;;;3.02;100.00;100697.66;5239574;28;20044;-44
2024/01/14 07:44:05;;;;;;;5.78;2.40;;;3.30;99.90;;;3.02;100.00;100692.50;5239303;28;20044;-44
2024/01/14 07:46:38;;;;;;;4.13;1.70;;;3.30;99.90;;;3.03;100.00;100695.16;5245384;28;20092;-45
2024/01/14 07:49:11;;;;;;;3.17;1.67;;;3.30;99.90;;;3.04;100.00;100699.50;5231241;28;20429;-44
2024/01/14 07:51:43;;;;;;;4.88;1.90;;;3.30;99.90;;;3.04;100.00;100689.22;5234942;28;20044;-44
2024/01/14 07:54:15;;;;;;;4.30;1.65;;;3.30;99.90;;;3.05;100.00;100702.97;5250630;28;20040;-44
2024/01/14 07:56:48;;;;;;;5.05;1.90;;;3.30;99.90;;;3.04;100.00;100698.63;5230789;28;20052;-43
2024/01/14 07:59:23;;;;;;;6.35;2.70;;;3.30;99.90;;;3.03;100.00;100695.16;5238328;28;20044;-44
2024/01/14 08:01:56;;;;;;;8.52;2.50;;;3.30;99.90;;;3.02;100.00;100698.53;5234176;28;20068;-45
2024/01/14 08:04:29;;;;;;;5.10;2.05;;;3.30;99.90;;;2.99;100.00;100694.06;5247497;28;20055;-44
2024/01/14 08:07:01;;;;;;;5.15;1.98;;;3.30;99.90;;;2.94;100.00;100700.63;5239444;28;20094;-44
2024/01/14 08:09:33;;;;;;;3.75;1.95;;;3.20;99.90;;;3.01;100.00;100688.16;5233030;28;20099;-45
2024/01/14 08:12:06;;;;;;;5.53;2.50;;;3.30;99.90;;;3.06;100.00;100689.31;5224677;28;20471;-44
2024/01/14 08:14:39;;;;;;;6.95;3.15;;;3.30;99.90;;;3.04;100.00;100696.06;5234073;28;20560;-44
2024/01/14 08:17:13;;;;;;;4.53;2.05;;;3.30;99.90;;;3.05;100.00;100692.69;5241908;28;20412;-44
2024/01/14 08:19:46;;;;;;;4.25;2.13;;;3.40;99.90;;;3.02;100.00;100690.81;5233586;28;20447;-44
2024/01/14 08:22:19;;;;;;;5.45;1.85;;;3.30;99.90;;;3.05;100.00;100690.09;5233854;28;20531;-44
2024/01/14 08:24:51;;;;;;;6.85;2.15;;;3.30;99.90;;;3.06;100.00;100684.16;5252649;28;20076;-45
2024/01/14 08:27:24;;;;;;;4.53;1.85;;;3.30;99.90;;;3.04;100.00;100683.19;5235361;28;20051;-44
2024/01/14 08:29:56;;;;;;;11.82;2.67;;;3.30;99.90;;;3.05;100.00;100682.38;5246910;28;20057;-45
2024/01/14 08:32:30;;;;;;;3.83;2.17;;;3.30;99.90;;;3.06;100.00;100679.00;5240640;28;20140;-45
2024/01/14 08:35:02;;;;;;;6.25;2.65;;;3.30;99.90;;;3.03;100.00;100679.72;5244069;28;20102;-45
2024/01/14 08:37:35;;;;;;;7.10;2.53;;;3.30;99.90;;;3.06;100.00;100679.00;5226103;28;20151;-45
2024/01/14 08:40:09;;;;;;;5.85;2.28;;;3.30;99.90;;;3.06;100.00;100679.88;5228021;28;20045;-44
2024/01/14 08:42:43;;;;;;;3.72;2.05;;;3.30;99.90;;;3.04;100.00;100676.34;5254034;28;20045;-44
2024/01/14 08:45:17;;;;;;;3.78;2.35;;;3.30;99.90;;;3.04;100.00;100671.19;5250591;28;20163;-45
2024/01/14 08:47:50;;;;;;;3.78;1.85;;;3.30;99.90;;;3.06;100.00;100673.84;5243869;28;20055;-46
2024/01/14 08:50:23;;;;;;;3.28;1.50;;;3.30;99.90;;;3.05;100.00;100674.66;5246961;28;20068;-44
2024/01/14 08:52:58;;;;;;;4.82;2.35;;;3.30;99.90;;;3.06;100.00;100679.00;5243400;28;20507;-44
2024/01/14 08:55:31;;;;;;;3.88;1.77;;;3.30;99.90;;;3.07;100.00;100673.09;5253149;28;20045;-45
2024/01/14 08:58:04;;;;;;;3.63;1.77;;;3.30;99.90;;;3.08;100.00;100670.59;5242617;28;20609;-44
2024/01/14 09:00:36;;;;;;;4.47;2.35;;;3.40;99.90;;;3.43;100.00;100667.59;5222234;28;20419;-44
2024/01/14 09:03:10;;;;;;;6.35;2.20;;;3.60;99.90;;;3.42;100.00;100671.00;5225440;28;20118;-44
2024/01/14 09:05:42;;;;;;;7.57;2.05;;;3.70;99.90;;;3.40;100.00;100670.00;5238648;28;20056;-44
2024/01/14 09:08:15;;;;;;;2.80;1.73;;;3.70;99.90;;;3.35;100.00;100674.00;5245259;28;20055;-45
2024/01/14 09:10:48;;;;;;;3.78;1.95;;;3.60;99.90;;;3.33;100.00;100669.56;5247889;28;20051;-44
2024/01/14 09:13:23;;;;;;;4.20;2.08;;;3.60;99.90;;;3.30;100.00;100677.06;5229663;28;20045;-45
2024/01/14 09:15:55;;;;;;;5.55;1.88;;;3.60;99.90;;;3.29;100.00;100681.34;5239736;28;20048;-44
2024/01/14 09:18:29;;;;;;;4.95;2.30;;;3.50;99.90;;;3.26;100.00;100678.59;5250395;28;20049;-43
2024/01/14 09:21:05;;;;;;;4.25;1.80;;;3.50;99.90;;;3.26;100.00;100678.59;5242382;28;20045;-44
2024/01/14 09:23:38;;;;;;;6.60;2.28;;;3.50;99.90;;;3.26;100.00;100673.44;5248510;28;20045;-45
2024/01/14 09:26:10;;;;;;;4.82;2.10;;;3.50;99.90;;;3.28;100.00;100670.94;5235015;28;20072;-44
2024/01/14 09:28:42;;;;;;;3.70;1.88;;;3.50;99.90;;;3.26;100.00;100678.59;5230216;28;20048;-44
2024/01/14 09:31:15;;;;;;;3.42;1.50;;;3.50;99.90;;;3.23;100.00;100674.13;5241883;28;20041;-44
2024/01/14 09:33:49;;;;;;;5.72;2.05;;;3.50;99.90;;;3.22;100.00;100674.03;5246853;28;20478;-44
2024/01/14 09:36:21;;;;;;;4.00;2.22;;;3.50;99.90;;;3.20;100.00;100686.81;5244748;28;20048;-44
2024/01/14 09:38:54;;;;;;;4.10;1.75;;;3.60;99.90;;;3.18;100.00;100680.66;5228824;28;20052;-44
2024/01/14 09:41:38;;;;;;;5.10;2.00;;;3.40;99.90;;;3.19;100.00;100678.97;5245168;28;20133;-45
2024/01/14 09:44:15;;;;;;;5.70;1.75;;;3.40;99.90;;;3.19;100.00;100676.41;5227121;28;20418;-44
2024/01/14 09:46:48;;;;;;;4.55;1.75;;;3.40;99.90;;;3.18;100.00;100680.66;5233754;28;20048;-44
2024/01/14 09:49:22;;;;;;;5.53;2.30;;;3.40;99.90;;;3.18;100.00;100684.91;5222470;28;20041;-45
2024/01/14 09:51:56;;;;;;;4.53;1.77;;;3.50;99.90;;;3.18;100.00;100684.91;5240437;28;20124;-44
2024/01/14 09:54:28;;;;;;;3.72;1.40;;;3.40;99.90;;;3.18;100.00;100685.81;5239041;28;20064;-44
2024/01/14 09:57:07;;;;;;;3.15;1.45;;;3.40;99.90;;;3.17;100.00;100678.00;5241529;28;20040;-45
2024/01/14 09:59:43;;;;;;;3.25;1.95;;;3.40;99.90;;;3.20;100.00;100684.25;5245604;28;20185;-45
2024/01/14 10:02:16;;;;;;;4.03;1.85;;;3.40;99.90;;;3.18;100.00;100682.34;5257744;28;20052;-44
2024/01/14 10:04:50;;;;;;;3.60;1.83;;;3.40;99.90;;;3.18;100.00;100672.03;5262585;28;20498;-44
2024/01/14 10:07:24;;;;;;;4.63;1.90;;;3.40;99.90;;;3.18;100.00;100665.22;5273187;28;20071;-44
2024/01/14 10:09:57;;;;;;;4.25;1.92;;;3.50;99.90;;;3.19;100.00;100676.41;5257676;28;20066;-44
2024/01/14 10:12:30;;;;;;;4.68;2.25;;;3.50;99.90;;;3.19;100.00;100673.81;5270940;28;20126;-45
2024/01/14 10:15:02;;;;;;;4.32;1.60;;;3.50;99.90;;;3.22;100.00;100671.44;5258071;28;20055;-43
2024/01/14 10:17:35;;;;;;;4.57;2.05;;;3.50;99.90;;;3.23;100.00;100662.91;5264634;28;20044;-44
2024/01/14 10:20:10;;;;;;;8.90;2.50;;;3.50;99.90;;;3.23;100.00;100662.91;5258904;28;20068;-44
2024/01/14 10:22:43;;;;;;;4.65;2.17;;;3.50;99.90;;;3.22;100.00;100650.84;5250054;28;20052;-45
2024/01/14 10:25:19;;;;;;;6.20;1.95;;;3.50;99.90;;;3.26;100.00;100648.56;5263656;28;20072;-44
2024/01/14 10:27:52;;;;;;;4.22;2.17;;;3.50;99.90;;;3.29;100.00;100646.97;5266669;28;20045;-45
2024/01/14 10:30:25;;;;;;;5.18;1.42;;;3.50;99.90;;;3.28;100.00;100640.91;5266474;28;20093;-44
2024/01/14 10:32:57;;;;;;;4.55;2.20;;;3.50;99.90;;;3.32;100.00;100639.41;5250004;28;20063;-43
2024/01/14 10:35:31;;;;;;;6.95;2.28;;;3.60;99.90;;;3.32;100.00;100639.41;5264116;28;20041;-44
2024/01/14 10:38:04;;;;;;;7.28;2.67;;;3.60;99.90;;;3.23;100.00;100622.59;5261314;28;20404;-43
2024/01/14 10:40:36;;;;;;;3.97;2.17;;;3.50;99.90;;;3.16;100.00;100624.72;5267204;28;20048;-43
2024/01/14 10:43:12;;;;;;;4.32;2.15;;;3.50;99.90;;;3.09;100.00;100614.81;5260881;28;20040;-44